sensor_id;sensor_type;location;lat;lon;timestamp;pressure;altitude;pressure_sealevel;temperature;humidity
67738;BME280;54534;43.612;1.572;2023-06-10T00:00:44;98711.53;;;23.43;56.58
67738;BME280;54534;43.612;1.572;2023-06-10T00:03:10;98708.84;;;23.43;56.46
67738;BME280;54534;43.612;1.572;2023-06-10T00:05:35;98707.81;;;23.44;56.42
67738;BME280;54534;43.612;1.572;2023-06-10T00:08:04;98710.50;;;23.44;56.34
67738;BME280;54534;43.612;1.572;2023-06-10T00:10:36;98706.16;;;23.43;56.45
67738;BME280;54534;43.612;1.572;2023-06-10T00:13:05;98693.09;;;23.40;56.40
67738;BME280;54534;43.612;1.572;2023-06-10T00:15:34;98694.75;;;23.41;56.34
67738;BME280;54534;43.612;1.572;2023-06-10T00:18:00;98694.94;;;23.40;56.40
67738;BME280;54534;43.612;1.572;2023-06-10T00:20:27;98692.91;;;23.42;56.35
67738;BME280;54534;43.612;1.572;2023-06-10T00:22:53;98698.44;;;23.40;56.40
67738;BME280;54534;43.612;1.572;2023-06-10T00:25:18;98691.41;;;23.39;56.22
67738;BME280;54534;43.612;1.572;2023-06-10T00:27:44;98686.03;;;23.39;56.49
67738;BME280;54534;43.612;1.572;2023-06-10T00:30:10;98691.25;;;23.41;56.30
67738;BME280;54534;43.612;1.572;2023-06-10T00:32:36;98682.50;;;23.39;56.27
67738;BME280;54534;43.612;1.572;2023-06-10T00:35:05;98686.03;;;23.39;56.51
67738;BME280;54534;43.612;1.572;2023-06-10T00:37:32;98679.16;;;23.37;56.38
67738;BME280;54534;43.612;1.572;2023-06-10T00:40:00;98684.38;;;23.38;56.25
67738;BME280;54534;43.612;1.572;2023-06-10T00:42:25;98674.47;;;23.39;56.30
67738;BME280;54534;43.612;1.572;2023-06-10T00:44:51;98668.44;;;23.37;56.07
67738;BME280;54534;43.612;1.572;2023-06-10T00:47:17;98677.31;;;23.37;56.08
67738;BME280;54534;43.612;1.572;2023-06-10T00:49:43;98672.94;;;23.36;56.18
67738;BME280;54534;43.612;1.572;2023-06-10T00:52:09;98670.28;;;23.36;56.09
67738;BME280;54534;43.612;1.572;2023-06-10T00:54:36;98670.28;;;23.36;56.12
67738;BME280;54534;43.612;1.572;2023-06-10T00:57:02;98668.44;;;23.37;56.26
67738;BME280;54534;43.612;1.572;2023-06-10T00:59:29;98666.06;;;23.33;56.46
67738;BME280;54534;43.612;1.572;2023-06-10T01:01:56;98673.97;;;23.35;56.39
67738;BME280;54534;43.612;1.572;2023-06-10T01:04:22;98678.50;;;23.35;56.54
67738;BME280;54534;43.612;1.572;2023-06-10T01:06:57;98674.97;;;23.34;56.50
67738;BME280;54534;43.612;1.572;2023-06-10T01:12:10;98691.06;;;23.34;56.46
67738;BME280;54534;43.612;1.572;2023-06-10T01:14:37;98682.34;;;23.32;56.48
67738;BME280;54534;43.612;1.572;2023-06-10T01:17:04;98693.09;;;23.32;56.51
67738;BME280;54534;43.612;1.572;2023-06-10T01:19:30;98688.56;;;23.32;56.29
67738;BME280;54534;43.612;1.572;2023-06-10T01:21:56;98682.34;;;23.32;56.33
67738;BME280;54534;43.612;1.572;2023-06-10T01:24:26;98677.13;;;23.30;56.28
67738;BME280;54534;43.612;1.572;2023-06-10T01:26:53;98679.66;;;23.32;56.27
67738;BME280;54534;43.612;1.572;2023-06-10T01:29:27;98683.34;;;23.31;56.26
67738;BME280;54534;43.612;1.572;2023-06-10T01:32:07;98684.38;;;23.30;56.15
67738;BME280;54534;43.612;1.572;2023-06-10T01:34:33;98680.00;;;23.29;56.28
67738;BME280;54534;43.612;1.572;2023-06-10T01:37:02;98678.16;;;23.29;56.16
67738;BME280;54534;43.612;1.572;2023-06-10T01:39:29;98681.00;;;23.28;56.10
67738;BME280;54534;43.612;1.572;2023-06-10T01:41:56;98683.69;;;23.28;56.07
67738;BME280;54534;43.612;1.572;2023-06-10T01:44:22;98685.53;;;23.27;56.10
67738;BME280;54534;43.612;1.572;2023-06-10T01:46:48;98681.19;;;23.26;56.08
67738;BME280;54534;43.612;1.572;2023-06-10T01:49:14;98683.84;;;23.26;56.18
67738;BME280;54534;43.612;1.572;2023-06-10T01:51:39;98685.69;;;23.26;56.08
67738;BME280;54534;43.612;1.572;2023-06-10T01:54:05;98681.19;;;23.26;56.12
67738;BME280;54534;43.612;1.572;2023-06-10T01:56:31;98683.00;;;23.26;56.26
67738;BME280;54534;43.612;1.572;2023-06-10T01:58:57;98682.16;;;23.25;56.12
67738;BME280;54534;43.612;1.572;2023-06-10T02:01:28;98677.81;;;23.24;55.97
67738;BME280;54534;43.612;1.572;2023-06-10T02:03:53;98672.63;;;23.22;56.12
67738;BME280;54534;43.612;1.572;2023-06-10T02:06:19;98676.31;;;23.21;56.23
67738;BME280;54534;43.612;1.572;2023-06-10T02:08:44;98677.97;;;23.22;56.06
67738;BME280;54534;43.612;1.572;2023-06-10T02:11:10;98687.88;;;23.22;56.02
67738;BME280;54534;43.612;1.572;2023-06-10T02:13:35;98677.16;;;23.22;56.12
67738;BME280;54534;43.612;1.572;2023-06-10T02:16:01;98677.31;;;23.20;56.16
67738;BME280;54534;43.612;1.572;2023-06-10T02:18:27;98678.16;;;23.21;56.05
67738;BME280;54534;43.612;1.572;2023-06-10T02:20:53;98688.03;;;23.20;56.20
67738;BME280;54534;43.612;1.572;2023-06-10T02:23:19;98687.19;;;23.20;56.03
67738;BME280;54534;43.612;1.572;2023-06-10T02:25:45;98682.84;;;23.19;56.14
67738;BME280;54534;43.612;1.572;2023-06-10T02:28:10;98685.69;;;23.17;56.08
67738;BME280;54534;43.612;1.572;2023-06-10T02:30:39;98682.84;;;23.19;56.10
67738;BME280;54534;43.612;1.572;2023-06-10T02:33:04;98694.56;;;23.18;55.94
67738;BME280;54534;43.612;1.572;2023-06-10T02:35:30;98690.06;;;23.18;56.02
67738;BME280;54534;43.612;1.572;2023-06-10T02:37:55;98703.47;;;23.18;56.03
67738;BME280;54534;43.612;1.572;2023-06-10T02:40:21;98690.25;;;23.17;55.82
67738;BME280;54534;43.612;1.572;2023-06-10T02:42:46;98688.53;;;23.16;55.98
67738;BME280;54534;43.612;1.572;2023-06-10T02:45:11;98687.56;;;23.17;55.90
67738;BME280;54534;43.612;1.572;2023-06-10T02:47:37;98689.38;;;23.16;55.96
67738;BME280;54534;43.612;1.572;2023-06-10T02:50:04;98696.59;;;23.16;55.88
67738;BME280;54534;43.612;1.572;2023-06-10T02:52:30;98700.13;;;23.16;55.77
67738;BME280;54534;43.612;1.572;2023-06-10T02:54:56;98704.63;;;23.16;55.77
67738;BME280;54534;43.612;1.572;2023-06-10T02:57:21;98704.63;;;23.16;55.72
67738;BME280;54534;43.612;1.572;2023-06-10T02:59:47;98702.94;;;23.15;55.69
67738;BME280;54534;43.612;1.572;2023-06-10T03:02:12;98702.94;;;23.15;55.69
67738;BME280;54534;43.612;1.572;2023-06-10T03:04:38;98708.31;;;23.15;55.74
67738;BME280;54534;43.612;1.572;2023-06-10T03:07:03;98710.19;;;23.14;55.61
67738;BME280;54534;43.612;1.572;2023-06-10T03:09:32;98710.19;;;23.14;55.48
67738;BME280;54534;43.612;1.572;2023-06-10T03:11:57;98709.47;;;23.12;55.63
67738;BME280;54534;43.612;1.572;2023-06-10T03:14:25;98706.66;;;23.14;55.64
67738;BME280;54534;43.612;1.572;2023-06-10T03:16:50;98711.16;;;23.13;55.61
67738;BME280;54534;43.612;1.572;2023-06-10T03:19:16;98715.69;;;23.13;55.50
67738;BME280;54534;43.612;1.572;2023-06-10T03:21:44;98711.34;;;23.11;55.53
67738;BME280;54534;43.612;1.572;2023-06-10T03:24:09;98709.47;;;23.12;55.55
67738;BME280;54534;43.612;1.572;2023-06-10T03:26:36;98714.03;;;23.11;55.49
67738;BME280;54534;43.612;1.572;2023-06-10T03:29:01;98711.50;;;23.10;55.65
67738;BME280;54534;43.612;1.572;2023-06-10T03:31:27;98716.88;;;23.10;55.46
67738;BME280;54534;43.612;1.572;2023-06-10T03:33:52;98717.88;;;23.09;55.54
67738;BME280;54534;43.612;1.572;2023-06-10T03:36:18;98718.69;;;23.09;55.44
67738;BME280;54534;43.612;1.572;2023-06-10T03:38:43;98715.19;;;23.09;55.32
67738;BME280;54534;43.612;1.572;2023-06-10T03:41:08;98720.56;;;23.09;55.34
67738;BME280;54534;43.612;1.572;2023-06-10T03:43:34;98725.09;;;23.08;55.27
67738;BME280;54534;43.612;1.572;2023-06-10T03:45:59;98720.56;;;23.09;55.24
67738;BME280;54534;43.612;1.572;2023-06-10T03:48:24;98727.91;;;23.07;55.15
67738;BME280;54534;43.612;1.572;2023-06-10T03:50:50;98729.59;;;23.08;55.18
67738;BME280;54534;43.612;1.572;2023-06-10T03:53:18;98733.28;;;23.07;55.31
67738;BME280;54534;43.612;1.572;2023-06-10T03:55:43;98727.91;;;23.07;55.36
67738;BME280;54534;43.612;1.572;2023-06-10T03:58:10;98731.44;;;23.07;55.39
67738;BME280;54534;43.612;1.572;2023-06-10T04:00:38;98732.47;;;23.06;55.15
67738;BME280;54534;43.612;1.572;2023-06-10T04:03:09;98736.13;;;23.05;55.22
67738;BME280;54534;43.612;1.572;2023-06-10T04:05:39;98729.09;;;23.04;55.19
67738;BME280;54534;43.612;1.572;2023-06-10T04:08:05;98734.44;;;23.04;55.26
67738;BME280;54534;43.612;1.572;2023-06-10T04:10:32;98745.16;;;23.04;55.24
67738;BME280;54534;43.612;1.572;2023-06-10T04:12:57;98741.66;;;23.04;55.26
67738;BME280;54534;43.612;1.572;2023-06-10T04:15:22;98748.69;;;23.05;55.04
67738;BME280;54534;43.612;1.572;2023-06-10T04:17:48;98751.56;;;23.03;55.08
67738;BME280;54534;43.612;1.572;2023-06-10T04:20:14;98748.03;;;23.03;55.10
67738;BME280;54534;43.612;1.572;2023-06-10T04:22:39;98748.03;;;23.03;55.16
67738;BME280;54534;43.612;1.572;2023-06-10T04:25:05;98749.00;;;23.02;55.18
67738;BME280;54534;43.612;1.572;2023-06-10T04:27:32;98749.19;;;23.00;54.94
67738;BME280;54534;43.612;1.572;2023-06-10T04:29:58;98754.38;;;23.02;55.13
67738;BME280;54534;43.612;1.572;2023-06-10T04:32:23;98745.53;;;23.01;55.07
67738;BME280;54534;43.612;1.572;2023-06-10T04:34:49;98748.19;;;23.01;55.11
67738;BME280;54534;43.612;1.572;2023-06-10T04:37:14;98760.75;;;23.00;55.08
67738;BME280;54534;43.612;1.572;2023-06-10T04:39:40;98758.09;;;23.00;55.00
67738;BME280;54534;43.612;1.572;2023-06-10T04:42:06;98763.44;;;23.00;55.10
67738;BME280;54534;43.612;1.572;2023-06-10T04:44:32;98768.13;;;22.98;55.12
67738;BME280;54534;43.612;1.572;2023-06-10T04:46:57;98769.78;;;22.99;55.11
67738;BME280;54534;43.612;1.572;2023-06-10T04:49:22;98773.50;;;22.98;55.05
67738;BME280;54534;43.612;1.572;2023-06-10T04:51:48;98771.63;;;22.99;55.03
67738;BME280;54534;43.612;1.572;2023-06-10T04:54:13;98770.81;;;22.98;54.91
67738;BME280;54534;43.612;1.572;2023-06-10T04:56:39;98770.81;;;22.98;54.96
67738;BME280;54534;43.612;1.572;2023-06-10T04:59:05;98767.44;;;22.96;54.94
67738;BME280;54534;43.612;1.572;2023-06-10T05:01:30;98770.97;;;22.97;55.04
67738;BME280;54534;43.612;1.572;2023-06-10T05:03:55;98778.16;;;22.96;55.10
67738;BME280;54534;43.612;1.572;2023-06-10T05:06:21;98769.28;;;22.96;55.08
67738;BME280;54534;43.612;1.572;2023-06-10T05:08:46;98768.47;;;22.95;55.05
67738;BME280;54534;43.612;1.572;2023-06-10T05:11:12;98777.31;;;22.96;55.04
67738;BME280;54534;43.612;1.572;2023-06-10T05:13:37;98773.81;;;22.95;55.08
67738;BME280;54534;43.612;1.572;2023-06-10T05:16:03;98775.47;;;22.96;55.08
67738;BME280;54534;43.612;1.572;2023-06-10T05:18:28;98778.47;;;22.93;55.07
67738;BME280;54534;43.612;1.572;2023-06-10T05:20:54;98781.00;;;22.95;54.91
67738;BME280;54534;43.612;1.572;2023-06-10T05:23:20;98779.19;;;22.95;54.94
67738;BME280;54534;43.612;1.572;2023-06-10T05:25:45;98787.22;;;22.95;54.95
67738;BME280;54534;43.612;1.572;2023-06-10T05:28:11;98778.47;;;22.93;54.93
67738;BME280;54534;43.612;1.572;2023-06-10T05:30:37;98770.44;;;22.93;54.83
67738;BME280;54534;43.612;1.572;2023-06-10T05:33:03;98775.81;;;22.93;54.80
67738;BME280;54534;43.612;1.572;2023-06-10T05:35:29;98781.16;;;22.93;54.91
67738;BME280;54534;43.612;1.572;2023-06-10T05:37:54;98780.34;;;22.93;54.74
67738;BME280;54534;43.612;1.572;2023-06-10T05:40:20;98780.50;;;22.91;54.81
67738;BME280;54534;43.612;1.572;2023-06-10T05:42:46;98775.97;;;22.92;54.72
67738;BME280;54534;43.612;1.572;2023-06-10T05:45:11;98791.06;;;22.93;54.73
67738;BME280;54534;43.612;1.572;2023-06-10T05:47:36;98788.53;;;22.91;54.79
67738;BME280;54534;43.612;1.572;2023-06-10T05:50:02;98783.16;;;22.91;54.79
67738;BME280;54534;43.612;1.572;2023-06-10T05:52:32;98789.38;;;22.92;54.74
67738;BME280;54534;43.612;1.572;2023-06-10T05:54:57;98782.31;;;22.91;54.69
67738;BME280;54534;43.612;1.572;2023-06-10T05:57:24;98781.34;;;22.92;54.68
67738;BME280;54534;43.612;1.572;2023-06-10T05:59:50;98795.72;;;22.91;54.79
67738;BME280;54534;43.612;1.572;2023-06-10T06:02:15;98795.91;;;22.89;54.68
67738;BME280;54534;43.612;1.572;2023-06-10T06:04:41;98794.91;;;22.90;54.77
67738;BME280;54534;43.612;1.572;2023-06-10T06:07:06;98798.41;;;22.91;54.62
67738;BME280;54534;43.612;1.572;2023-06-10T06:09:31;98793.22;;;22.89;54.61
67738;BME280;54534;43.612;1.572;2023-06-10T06:11:57;98799.44;;;22.89;54.49
67738;BME280;54534;43.612;1.572;2023-06-10T06:14:22;98800.28;;;22.90;54.58
67738;BME280;54534;43.612;1.572;2023-06-10T06:16:48;98794.91;;;22.90;54.65
67738;BME280;54534;43.612;1.572;2023-06-10T06:19:13;98794.91;;;22.90;54.68
67738;BME280;54534;43.612;1.572;2023-06-10T06:21:39;98794.91;;;22.90;54.26
67738;BME280;54534;43.612;1.572;2023-06-10T06:24:04;98801.25;;;22.89;53.78
67738;BME280;54534;43.612;1.572;2023-06-10T06:26:30;98804.25;;;22.86;53.94
67738;BME280;54534;43.612;1.572;2023-06-10T06:28:55;98811.47;;;22.85;53.85
67738;BME280;54534;43.612;1.572;2023-06-10T06:31:21;98814.31;;;22.84;53.97
67738;BME280;54534;43.612;1.572;2023-06-10T06:33:46;98816.31;;;22.82;54.08
67738;BME280;54534;43.612;1.572;2023-06-10T06:36:11;98832.41;;;22.82;53.98
67738;BME280;54534;43.612;1.572;2023-06-10T06:38:37;98825.34;;;22.81;54.10
67738;BME280;54534;43.612;1.572;2023-06-10T06:41:02;98827.34;;;22.78;54.11
67738;BME280;54534;43.612;1.572;2023-06-10T06:43:31;98829.19;;;22.78;54.25
67738;BME280;54534;43.612;1.572;2023-06-10T06:45:57;98829.38;;;22.76;54.31
67738;BME280;54534;43.612;1.572;2023-06-10T06:48:23;98820.47;;;22.76;54.43
67738;BME280;54534;43.612;1.572;2023-06-10T06:50:48;98822.50;;;22.74;54.36
67738;BME280;54534;43.612;1.572;2023-06-10T06:53:13;98825.16;;;22.74;54.39
67738;BME280;54534;43.612;1.572;2023-06-10T06:55:39;98829.69;;;22.73;54.50
67738;BME280;54534;43.612;1.572;2023-06-10T06:58:04;98828.84;;;22.73;54.62
67738;BME280;54534;43.612;1.572;2023-06-10T07:00:30;98828.84;;;22.73;54.52
67738;BME280;54534;43.612;1.572;2023-06-10T07:02:56;98828.00;;;22.72;54.61
67738;BME280;54534;43.612;1.572;2023-06-10T07:05:22;98819.28;;;22.70;54.70
67738;BME280;54534;43.612;1.572;2023-06-10T07:07:48;98820.13;;;22.71;54.83
67738;BME280;54534;43.612;1.572;2023-06-10T07:10:13;98824.63;;;22.70;54.81
67738;BME280;54534;43.612;1.572;2023-06-10T07:12:40;98832.69;;;22.70;54.89
67738;BME280;54534;43.612;1.572;2023-06-10T07:15:05;98822.94;;;22.69;54.97
67738;BME280;54534;43.612;1.572;2023-06-10T07:17:31;98816.75;;;22.69;54.80
67738;BME280;54534;43.612;1.572;2023-06-10T07:19:56;98825.63;;;22.69;54.99
67738;BME280;54534;43.612;1.572;2023-06-10T07:22:24;98832.81;;;22.69;54.97
67738;BME280;54534;43.612;1.572;2023-06-10T07:24:50;98835.50;;;22.69;54.93
67738;BME280;54534;43.612;1.572;2023-06-10T07:27:16;98836.19;;;22.71;55.00
67738;BME280;54534;43.612;1.572;2023-06-10T07:29:42;98831.69;;;22.71;55.04
67738;BME280;54534;43.612;1.572;2023-06-10T07:32:08;98829.00;;;22.71;55.13
67738;BME280;54534;43.612;1.572;2023-06-10T07:34:33;98826.34;;;22.71;55.06
67738;BME280;54534;43.612;1.572;2023-06-10T07:36:58;98840.56;;;22.72;54.98
67738;BME280;54534;43.612;1.572;2023-06-10T07:39:24;98833.34;;;22.72;54.93
67738;BME280;54534;43.612;1.572;2023-06-10T07:41:49;98833.34;;;22.72;55.31
67738;BME280;54534;43.612;1.572;2023-06-10T07:44:15;98839.56;;;22.73;55.01
67738;BME280;54534;43.612;1.572;2023-06-10T07:46:40;98836.72;;;22.74;55.03
67738;BME280;54534;43.612;1.572;2023-06-10T07:49:06;98836.72;;;22.74;55.12
67738;BME280;54534;43.612;1.572;2023-06-10T07:51:31;98844.78;;;22.74;55.01
67738;BME280;54534;43.612;1.572;2023-06-10T07:53:57;98845.59;;;22.75;55.12
67738;BME280;54534;43.612;1.572;2023-06-10T07:56:22;98842.09;;;22.74;55.10
67738;BME280;54534;43.612;1.572;2023-06-10T07:58:47;98849.13;;;22.75;54.89
67738;BME280;54534;43.612;1.572;2023-06-10T08:01:13;98849.78;;;22.77;54.93
67738;BME280;54534;43.612;1.572;2023-06-10T08:03:38;98849.66;;;22.79;55.06
67738;BME280;54534;43.612;1.572;2023-06-10T08:06:04;98858.53;;;22.80;54.95
67738;BME280;54534;43.612;1.572;2023-06-10T08:08:30;98855.84;;;22.80;54.98
67738;BME280;54534;43.612;1.572;2023-06-10T08:10:56;98852.16;;;22.81;55.09
67738;BME280;54534;43.612;1.572;2023-06-10T08:13:21;98853.00;;;22.81;54.97
67738;BME280;54534;43.612;1.572;2023-06-10T08:15:47;98847.63;;;22.81;54.98
67738;BME280;54534;43.612;1.572;2023-06-10T08:18:15;98854.69;;;22.82;54.90
67738;BME280;54534;43.612;1.572;2023-06-10T08:20:41;98860.06;;;22.82;54.87
67738;BME280;54534;43.612;1.572;2023-06-10T08:23:06;98850.16;;;22.83;54.85
67738;BME280;54534;43.612;1.572;2023-06-10T08:25:31;98844.78;;;22.83;55.00
67738;BME280;54534;43.612;1.572;2023-06-10T08:27:57;98848.31;;;22.83;54.92
67738;BME280;54534;43.612;1.572;2023-06-10T08:30:23;98847.31;;;22.84;55.02
67738;BME280;54534;43.612;1.572;2023-06-10T08:32:48;98848.00;;;22.86;54.81
67738;BME280;54534;43.612;1.572;2023-06-10T08:35:13;98853.34;;;22.86;54.81
67738;BME280;54534;43.612;1.572;2023-06-10T08:37:39;98856.88;;;22.87;54.94
67738;BME280;54534;43.612;1.572;2023-06-10T08:40:05;98861.22;;;22.88;54.77
67738;BME280;54534;43.612;1.572;2023-06-10T08:42:43;98869.28;;;22.88;54.82
67738;BME280;54534;43.612;1.572;2023-06-10T08:45:16;98866.59;;;22.88;54.86
67738;BME280;54534;43.612;1.572;2023-06-10T08:47:44;98867.44;;;22.88;54.98
67738;BME280;54534;43.612;1.572;2023-06-10T08:50:10;98871.13;;;22.87;54.89
67738;BME280;54534;43.612;1.572;2023-06-10T08:52:36;98867.44;;;22.88;54.85
67738;BME280;54534;43.612;1.572;2023-06-10T08:55:18;98872.66;;;22.90;54.70
67738;BME280;54534;43.612;1.572;2023-06-10T08:57:45;98879.84;;;22.89;54.63
67738;BME280;54534;43.612;1.572;2023-06-10T09:00:12;98873.66;;;22.89;54.64
67738;BME280;54534;43.612;1.572;2023-06-10T09:02:38;98875.34;;;22.90;54.71
67738;BME280;54534;43.612;1.572;2023-06-10T09:05:05;98877.84;;;22.92;54.79
67738;BME280;54534;43.612;1.572;2023-06-10T09:07:30;98869.13;;;22.89;54.62
67738;BME280;54534;43.612;1.572;2023-06-10T09:09:57;98876.00;;;22.92;54.55
67738;BME280;54534;43.612;1.572;2023-06-10T09:12:23;98879.69;;;22.91;54.76
67738;BME280;54534;43.612;1.572;2023-06-10T09:14:49;98877.00;;;22.91;54.58
67738;BME280;54534;43.612;1.572;2023-06-10T09:17:15;98888.38;;;22.93;54.66
67738;BME280;54534;43.612;1.572;2023-06-10T09:19:41;98879.53;;;22.93;54.69
67738;BME280;54534;43.612;1.572;2023-06-10T09:22:09;98887.41;;;22.94;54.68
67738;BME280;54534;43.612;1.572;2023-06-10T09:24:34;98883.03;;;22.93;54.73
67738;BME280;54534;43.612;1.572;2023-06-10T09:27:04;98885.56;;;22.95;54.78
67738;BME280;54534;43.612;1.572;2023-06-10T09:29:31;98885.41;;;22.96;54.71
67738;BME280;54534;43.612;1.572;2023-06-10T09:31:56;98885.41;;;22.96;54.70
67738;BME280;54534;43.612;1.572;2023-06-10T09:34:25;98882.72;;;22.96;54.70
67738;BME280;54534;43.612;1.572;2023-06-10T09:36:51;98879.03;;;22.97;54.58
67738;BME280;54534;43.612;1.572;2023-06-10T09:39:18;98879.88;;;22.98;54.61
67738;BME280;54534;43.612;1.572;2023-06-10T09:41:45;98879.88;;;22.98;54.67
67738;BME280;54534;43.612;1.572;2023-06-10T09:44:15;98877.03;;;22.99;54.68
67738;BME280;54534;43.612;1.572;2023-06-10T09:46:41;98874.53;;;22.98;54.68
67738;BME280;54534;43.612;1.572;2023-06-10T09:49:07;98878.88;;;22.99;55.06
67738;BME280;54534;43.612;1.572;2023-06-10T09:51:33;98875.38;;;22.98;54.68
67738;BME280;54534;43.612;1.572;2023-06-10T09:53:59;98871.69;;;22.99;54.68
67738;BME280;54534;43.612;1.572;2023-06-10T09:56:36;98873.38;;;23.00;54.58
67738;BME280;54534;43.612;1.572;2023-06-10T09:59:03;98867.34;;;22.98;54.60
67738;BME280;54534;43.612;1.572;2023-06-10T10:01:30;98865.47;;;22.99;54.55
67738;BME280;54534;43.612;1.572;2023-06-10T10:03:55;98869.66;;;23.02;54.68
67738;BME280;54534;43.612;1.572;2023-06-10T10:06:21;98874.03;;;23.03;54.53
67738;BME280;54534;43.612;1.572;2023-06-10T10:08:50;98870.50;;;23.02;54.59
67738;BME280;54534;43.612;1.572;2023-06-10T10:11:20;98870.50;;;23.02;54.61
67738;BME280;54534;43.612;1.572;2023-06-10T10:13:48;98866.84;;;23.03;54.65
67738;BME280;54534;43.612;1.572;2023-06-10T10:16:20;98873.88;;;23.04;54.56
67738;BME280;54534;43.612;1.572;2023-06-10T10:18:52;98873.88;;;23.04;54.66
67738;BME280;54534;43.612;1.572;2023-06-10T10:21:23;98874.72;;;23.05;54.60
67738;BME280;54534;43.612;1.572;2023-06-10T10:24:05;98869.34;;;23.05;54.54
67738;BME280;54534;43.612;1.572;2023-06-10T10:26:33;98879.22;;;23.04;54.58
67738;BME280;54534;43.612;1.572;2023-06-10T10:31:29;98864.00;;;23.05;54.51
67738;BME280;54534;43.612;1.572;2023-06-10T10:33:59;98865.50;;;23.07;54.65
67738;BME280;54534;43.612;1.572;2023-06-10T10:36:25;98868.19;;;23.07;54.64
67738;BME280;54534;43.612;1.572;2023-06-10T10:38:51;98858.31;;;23.08;54.64
67738;BME280;54534;43.612;1.572;2023-06-10T10:41:18;98864.50;;;23.08;54.48
67738;BME280;54534;43.612;1.572;2023-06-10T10:43:46;98855.63;;;23.08;54.68
67738;BME280;54534;43.612;1.572;2023-06-10T10:46:14;98860.00;;;23.09;54.62
67738;BME280;54534;43.612;1.572;2023-06-10T10:48:40;98857.31;;;23.09;54.63
67738;BME280;54534;43.612;1.572;2023-06-10T10:51:10;98858.97;;;23.10;54.59
67738;BME280;54534;43.612;1.572;2023-06-10T10:53:39;98857.13;;;23.10;54.45
67738;BME280;54534;43.612;1.572;2023-06-10T10:56:07;98860.81;;;23.09;54.23
67738;BME280;54534;43.612;1.572;2023-06-10T10:58:33;98858.97;;;23.10;54.45
67738;BME280;54534;43.612;1.572;2023-06-10T11:00:59;98858.00;;;23.11;54.46
67738;BME280;54534;43.612;1.572;2023-06-10T11:03:28;98858.00;;;23.11;54.32
67738;BME280;54534;43.612;1.572;2023-06-10T11:05:57;98856.16;;;23.11;54.40
67738;BME280;54534;43.612;1.572;2023-06-10T11:10:57;98859.66;;;23.12;54.11
67738;BME280;54534;43.612;1.572;2023-06-10T11:13:23;98858.84;;;23.11;54.25
67738;BME280;54534;43.612;1.572;2023-06-10T11:15:50;98853.63;;;23.10;54.16
67738;BME280;54534;43.612;1.572;2023-06-10T11:18:23;98855.97;;;23.13;54.08
67738;BME280;54534;43.612;1.572;2023-06-10T11:20:54;98856.81;;;23.14;53.97
67738;BME280;54534;43.612;1.572;2023-06-10T11:26:09;98855.00;;;23.14;54.03
67738;BME280;54534;43.612;1.572;2023-06-10T11:28:36;98849.63;;;23.14;53.96
67738;BME280;54534;43.612;1.572;2023-06-10T11:31:01;98847.75;;;23.15;53.91
67738;BME280;54534;43.612;1.572;2023-06-10T11:33:27;98844.25;;;23.14;54.03
67738;BME280;54534;43.612;1.572;2023-06-10T11:35:53;98842.41;;;23.15;53.92
67738;BME280;54534;43.612;1.572;2023-06-10T11:38:19;98842.25;;;23.16;53.93
67738;BME280;54534;43.612;1.572;2023-06-10T11:40:51;98835.19;;;23.15;53.98
67738;BME280;54534;43.612;1.572;2023-06-10T11:43:20;98832.38;;;23.17;53.85
67738;BME280;54534;43.612;1.572;2023-06-10T11:45:45;98833.34;;;23.16;53.71
67738;BME280;54534;43.612;1.572;2023-06-10T11:48:12;98828.66;;;23.18;53.77
67738;BME280;54534;43.612;1.572;2023-06-10T11:50:38;98829.50;;;23.18;53.96
67738;BME280;54534;43.612;1.572;2023-06-10T11:53:04;98833.03;;;23.19;54.07
67738;BME280;54534;43.612;1.572;2023-06-10T11:55:43;98823.16;;;23.19;54.18
67738;BME280;54534;43.612;1.572;2023-06-10T11:58:15;98829.19;;;23.21;53.88
67738;BME280;54534;43.612;1.572;2023-06-10T12:00:48;98819.31;;;23.22;53.87
67738;BME280;54534;43.612;1.572;2023-06-10T12:03:14;98823.81;;;23.21;53.79
67738;BME280;54534;43.612;1.572;2023-06-10T12:05:39;98815.78;;;23.21;53.88
67738;BME280;54534;43.612;1.572;2023-06-10T12:08:11;98819.97;;;23.24;53.80
67738;BME280;54534;43.612;1.572;2023-06-10T12:10:42;98819.13;;;23.24;53.78
67738;BME280;54534;43.612;1.572;2023-06-10T12:13:09;98809.25;;;23.24;53.74
67738;BME280;54534;43.612;1.572;2023-06-10T12:15:34;98812.78;;;23.25;53.61
67738;BME280;54534;43.612;1.572;2023-06-10T12:18:00;98806.56;;;23.24;53.65
67738;BME280;54534;43.612;1.572;2023-06-10T12:20:30;98806.38;;;23.26;53.73
67738;BME280;54534;43.612;1.572;2023-06-10T12:23:00;98802.84;;;23.25;53.68
67738;BME280;54534;43.612;1.572;2023-06-10T12:25:28;98803.56;;;23.27;53.59
67738;BME280;54534;43.612;1.572;2023-06-10T12:27:55;98808.94;;;23.27;53.63
67738;BME280;54534;43.612;1.572;2023-06-10T12:30:22;98807.91;;;23.28;53.68
67738;BME280;54534;43.612;1.572;2023-06-10T12:32:48;98796.31;;;23.28;53.61
67738;BME280;54534;43.612;1.572;2023-06-10T12:35:17;98800.69;;;23.29;53.56
67738;BME280;54534;43.612;1.572;2023-06-10T12:37:53;98799.00;;;23.28;53.63
67738;BME280;54534;43.612;1.572;2023-06-10T12:40:25;98794.34;;;23.30;53.55
67738;BME280;54534;43.612;1.572;2023-06-10T12:42:51;98787.28;;;23.29;53.50
67738;BME280;54534;43.612;1.572;2023-06-10T12:45:26;98784.44;;;23.30;53.62
67738;BME280;54534;43.612;1.572;2023-06-10T12:50:40;98775.38;;;23.31;53.44
67738;BME280;54534;43.612;1.572;2023-06-10T12:53:06;98767.34;;;23.31;53.55
67738;BME280;54534;43.612;1.572;2023-06-10T12:55:32;98772.72;;;23.31;53.47
67738;BME280;54534;43.612;1.572;2023-06-10T12:57:59;98766.34;;;23.32;53.38
67738;BME280;54534;43.612;1.572;2023-06-10T13:00:25;98768.19;;;23.32;53.39
67738;BME280;54534;43.612;1.572;2023-06-10T13:02:54;98763.50;;;23.34;53.36
67738;BME280;54534;43.612;1.572;2023-06-10T13:05:20;98766.16;;;23.34;53.30
67738;BME280;54534;43.612;1.572;2023-06-10T13:07:46;98757.28;;;23.33;53.42
67738;BME280;54534;43.612;1.572;2023-06-10T13:10:16;98758.78;;;23.36;53.32